createdAt,value
2023-10-17T00:01:46.479Z,21.06
2023-10-17T00:06:49.422Z,20.84
2023-10-17T00:11:56.775Z,21.07
2023-10-17T00:16:59.319Z,21.38
2023-10-17T00:22:04.895Z,21.05
2023-10-17T00:27:08.833Z,20.96
2023-10-17T00:32:11.298Z,20.99
2023-10-17T00:37:15.750Z,21.37
2023-10-17T00:42:36.517Z,20.92
2023-10-17T00:47:39.025Z,21.13
2023-10-17T00:52:42.478Z,20.77
2023-10-17T00:57:46.723Z,20.84
2023-10-17T01:02:49.174Z,20.65
2023-10-17T01:07:51.491Z,20.93
2023-10-17T01:13:05.976Z,20.65
2023-10-17T01:18:08.588Z,20.34
2023-10-17T01:23:11.957Z,21.07
2023-10-17T01:28:14.328Z,20.98
2023-10-17T01:33:18.356Z,20.36
2023-10-17T01:38:27.274Z,20.66
2023-10-17T01:43:36.647Z,20.49
2023-10-17T01:48:39.355Z,20.51
2023-10-17T01:53:42.671Z,20.77
2023-10-17T01:59:08.149Z,20.48
2023-10-17T02:04:20.158Z,20.77
2023-10-17T02:09:22.447Z,20.46
2023-10-17T02:14:24.969Z,20.33
2023-10-17T02:19:27.708Z,20.30
2023-10-17T02:24:31.161Z,20.41
2023-10-17T02:29:36.530Z,20.35
2023-10-17T02:34:39.687Z,20.49
2023-10-17T02:39:42.141Z,20.47
2023-10-17T02:44:45.539Z,20.26
2023-10-17T02:49:48.471Z,20.53
2023-10-17T02:54:58.279Z,20.34
2023-10-17T03:00:20.820Z,20.50
2023-10-17T03:05:24.580Z,20.29
2023-10-17T03:10:39.029Z,20.36
2023-10-17T03:15:47.815Z,20.71
2023-10-17T03:20:53.897Z,20.39
2023-10-17T03:26:02.728Z,20.06
2023-10-17T03:31:12.600Z,20.42
2023-10-17T03:36:33.670Z,20.38
2023-10-17T03:41:38.732Z,20.57
2023-10-17T03:46:41.130Z,20.40
2023-10-17T03:51:48.341Z,20.06
2023-10-17T03:56:57.805Z,20.26
2023-10-17T04:01:59.941Z,20.33
2023-10-17T04:07:05.063Z,20.68
2023-10-17T04:12:09.828Z,20.11
2023-10-17T04:17:15.994Z,20.04
2023-10-17T04:22:22.512Z,20.34
2023-10-17T04:27:32.683Z,20.20
2023-10-17T04:32:40.091Z,20.64
2023-10-17T04:37:46.582Z,20.43
2023-10-17T04:42:54.803Z,20.03
2023-10-17T04:48:13.827Z,20.49
2023-10-17T04:53:28.183Z,20.09
2023-10-17T04:58:41.413Z,20.26
2023-10-17T05:03:52.668Z,20.05
2023-10-17T05:09:13.612Z,19.76
2023-10-17T05:14:47.941Z,20.28
2023-10-17T05:20:08.828Z,19.89
2023-10-17T05:25:29.575Z,20.07
2023-10-17T05:30:50.793Z,20.33
2023-10-17T05:36:11.874Z,20.21
2023-10-17T05:41:38.814Z,19.99
2023-10-17T05:46:59.352Z,19.83
2023-10-17T05:52:20.077Z,20.00
2023-10-17T05:57:41.067Z,20.04
2023-10-17T06:03:02.000Z,20.22
2023-10-17T06:08:23.208Z,19.76
2023-10-17T06:13:44.168Z,19.98
2023-10-17T06:18:51.246Z,20.07
2023-10-17T06:24:19.941Z,19.98
2023-10-17T06:29:23.047Z,20.20
2023-10-17T06:34:26.263Z,19.81
2023-10-17T06:39:38.424Z,19.88
2023-10-17T06:44:53.424Z,20.16
2023-10-17T06:50:05.725Z,19.90
2023-10-17T06:55:09.676Z,19.99
2023-10-17T07:00:25.302Z,20.24
2023-10-17T07:05:28.310Z,19.94
2023-10-17T07:10:40.309Z,20.21
2023-10-17T07:15:43.569Z,19.73
2023-10-17T07:21:04.252Z,19.87
2023-10-17T07:26:11.544Z,20.42
2023-10-17T07:31:17.620Z,20.42
2023-10-17T07:36:20.428Z,20.03
2023-10-17T07:41:38.172Z,20.44
2023-10-17T07:46:47.791Z,20.64
2023-10-17T07:51:53.674Z,20.36
2023-10-17T07:57:00.403Z,19.98
2023-10-17T08:02:24.732Z,19.80
2023-10-17T08:07:27.182Z,20.47
2023-10-17T08:12:31.237Z,20.55
2023-10-17T08:17:36.546Z,20.26
2023-10-17T08:23:13.204Z,20.28
2023-10-17T08:28:33.271Z,20.44
2023-10-17T08:33:38.866Z,20.57
2023-10-17T08:38:46.048Z,20.34
2023-10-17T08:43:48.647Z,20.08
2023-10-17T08:48:58.853Z,20.69
2023-10-17T08:54:01.338Z,20.31
2023-10-17T08:59:45.076Z,20.99
2023-10-17T09:04:47.561Z,20.59
2023-10-17T09:09:57.187Z,20.91
2023-10-17T09:15:03.761Z,21.06
2023-10-17T09:20:34.859Z,21.29
2023-10-17T09:32:53.806Z,21.31
2023-10-17T10:15:53.340Z,20.66
2023-10-17T10:27:51.118Z,21.31
2023-10-17T10:32:57.330Z,20.63
2023-10-17T10:39:13.693Z,21.29
2023-10-17T10:50:57.346Z,20.96
2023-10-17T10:56:43.297Z,21.19
2023-10-17T12:06:12.792Z,21.64
2023-10-17T12:17:10.417Z,21.70
2023-10-17T12:22:12.790Z,21.36
2023-10-17T12:27:15.496Z,21.17
2023-10-17T12:32:22.480Z,21.45
2023-10-17T12:37:24.919Z,21.59
2023-10-17T12:42:27.302Z,21.48
2023-10-17T12:47:30.893Z,21.36
2023-10-17T12:52:33.277Z,21.14
2023-10-17T12:57:37.895Z,21.23
2023-10-17T13:02:41.555Z,21.45
2023-10-17T13:07:44.096Z,21.33
2023-10-17T13:12:48.244Z,21.03
2023-10-17T13:17:56.976Z,20.95
2023-10-17T13:23:04.921Z,21.05
2023-10-17T13:28:08.769Z,20.86
2023-10-17T13:33:11.178Z,20.90
2023-10-17T13:38:13.578Z,20.79
2023-10-17T13:43:15.895Z,20.64
2023-10-17T13:48:18.305Z,20.69
2023-10-17T13:53:20.572Z,20.71
2023-10-17T13:58:22.764Z,20.47
2023-10-17T14:03:25.351Z,20.50
2023-10-17T14:08:28.268Z,20.42
2023-10-17T14:13:30.508Z,20.46
2023-10-17T14:18:42.195Z,20.11
2023-10-17T14:23:59.339Z,19.72
2023-10-17T14:29:05.094Z,19.72
2023-10-17T14:34:11.097Z,19.84
2023-10-17T14:39:13.400Z,19.98
2023-10-17T14:44:16.845Z,19.73
2023-10-17T14:49:19.371Z,19.67
2023-10-17T14:54:23.312Z,19.99
2023-10-17T14:59:25.657Z,19.90
2023-10-17T15:04:28.069Z,19.81
2023-10-17T15:09:30.640Z,19.64
2023-10-17T15:14:35.773Z,19.96
2023-10-17T15:19:38.755Z,19.73
2023-10-17T15:24:41.053Z,19.75
2023-10-17T15:29:43.285Z,19.57
2023-10-17T15:34:47.729Z,19.70
2023-10-17T15:39:50.438Z,19.73
2023-10-17T15:44:53.686Z,19.81
2023-10-17T15:49:55.970Z,19.60
2023-10-17T15:54:58.473Z,19.63
2023-10-17T16:00:00.926Z,19.63
2023-10-17T16:05:05.736Z,19.69
2023-10-17T16:10:10.338Z,19.48
2023-10-17T16:15:13.312Z,19.52
2023-10-17T16:20:16.253Z,19.30
2023-10-17T16:25:20.124Z,19.64
2023-10-17T16:30:22.566Z,19.63
2023-10-17T16:35:26.254Z,19.51
2023-10-17T16:40:28.579Z,19.42
2023-10-17T16:45:31.915Z,19.34
2023-10-17T16:50:34.738Z,19.39
2023-10-17T16:55:39.427Z,19.34
2023-10-17T17:00:43.477Z,19.44
2023-10-17T17:05:45.906Z,19.32
2023-10-17T17:10:48.205Z,19.34
2023-10-17T17:15:50.812Z,19.31
2023-10-17T17:20:54.556Z,19.51
2023-10-17T17:25:57.868Z,19.43
2023-10-17T17:31:00.579Z,19.38
2023-10-17T17:36:04.308Z,19.41
2023-10-17T17:41:07.092Z,19.22
2023-10-17T17:46:10.397Z,19.41
2023-10-17T17:51:16.087Z,19.23
2023-10-17T17:56:19.084Z,19.44
2023-10-17T18:01:22.857Z,19.22
2023-10-17T18:06:25.370Z,19.21
2023-10-17T18:11:28.159Z,19.09
2023-10-17T18:16:35.192Z,19.31
2023-10-17T18:21:37.902Z,19.28
2023-10-17T18:26:42.441Z,19.31
2023-10-17T18:31:45.029Z,19.37
2023-10-17T18:36:47.347Z,19.23
2023-10-17T18:41:51.324Z,19.26
2023-10-17T18:46:54.837Z,19.47
2023-10-17T18:51:59.515Z,19.37
2023-10-17T18:57:01.861Z,19.27
2023-10-17T19:02:04.302Z,19.18
2023-10-17T19:07:07.671Z,19.24
2023-10-17T19:12:09.983Z,19.39
2023-10-17T19:17:13.599Z,19.30
2023-10-17T19:22:15.927Z,19.30
2023-10-17T19:27:18.330Z,19.43
2023-10-17T19:32:20.581Z,19.54
2023-10-17T19:37:22.980Z,19.19
2023-10-17T19:42:25.433Z,19.40
2023-10-17T19:47:29.289Z,19.28
2023-10-17T19:52:32.276Z,19.23
2023-10-17T19:57:34.801Z,19.45
2023-10-17T20:02:37.549Z,19.14
2023-10-17T20:07:40.641Z,19.22
2023-10-17T20:12:43.274Z,19.38
2023-10-17T20:17:46.309Z,19.18
2023-10-17T20:22:48.616Z,19.10
2023-10-17T20:27:50.952Z,19.35
2023-10-17T20:32:53.922Z,19.46
2023-10-17T20:37:56.190Z,19.25
2023-10-17T20:42:59.061Z,19.38
2023-10-17T20:48:02.762Z,19.12
2023-10-17T20:53:06.168Z,19.27
2023-10-17T20:58:10.975Z,19.29
2023-10-17T21:03:14.375Z,19.15
2023-10-17T21:08:17.247Z,19.19
2023-10-17T21:13:19.618Z,19.24
2023-10-17T21:18:21.857Z,19.03
2023-10-17T21:23:24.054Z,18.93
2023-10-17T21:28:26.353Z,18.77
2023-10-17T21:33:31.264Z,19.11
2023-10-17T21:38:33.557Z,19.00
2023-10-17T21:43:35.907Z,19.12
2023-10-17T21:48:46.175Z,19.41
2023-10-17T21:53:50.202Z,19.45
2023-10-17T21:58:52.683Z,19.68
2023-10-17T22:03:55.015Z,19.68
2023-10-17T22:09:01.033Z,19.71
2023-10-17T22:14:03.529Z,19.60
2023-10-17T22:19:06.008Z,19.40
2023-10-17T22:24:08.811Z,19.06
2023-10-17T22:29:11.946Z,19.28
2023-10-17T22:34:14.647Z,19.09
2023-10-17T22:39:16.947Z,18.98
2023-10-17T22:44:19.381Z,18.82
2023-10-17T22:49:21.878Z,18.96
2023-10-17T22:54:24.226Z,19.13
2023-10-17T22:59:26.693Z,19.00
2023-10-17T23:04:29.714Z,18.73
2023-10-17T23:09:31.967Z,18.90
2023-10-17T23:14:34.319Z,18.96
2023-10-17T23:19:42.770Z,18.90
2023-10-17T23:24:45.151Z,18.99
2023-10-17T23:29:48.572Z,18.71
2023-10-17T23:34:50.803Z,18.95
2023-10-17T23:39:53.228Z,19.01
2023-10-17T23:44:55.557Z,18.76
2023-10-17T23:49:57.946Z,18.71
2023-10-17T23:55:00.208Z,18.83
